Historique des mesures à Cassis (13260), France
Quotidien Résumé Janvier 3, 2018 Unités:  Métrique    US   Métrique/US
« Précédent (Jour)
Suivant (Jour) »
Quotidien Hebdomadaire Mensuel Annuel Période au choix
  Maximum: Minimum: Moyenne:
Température: 18.6 °C 11.6 °C 15 °C
Point de rosée: 12.8 °C 5.7 °C 8.2 °C
Humidité: 82 % 52 % 65 %
Vitesse du vent: 7.2 km/h 0.0 km/h 1.1 km/h
Rafales: 17.7 km/h - -
Vent:- - NW
Pression: 1016.1 hPa 1012.1 hPa -
Précipitations: 0.0 mm    
Historical Graphs
 
 
Mesures pour : Janvier 3, 2018
Heure Temperature Point de rosée Pression Vent Vitesse du vent Rafales Humidité Pluie (par heure) Conditions
00:10 11.9 °C 5.7 °C 1016.1 hPa Calm     66 % 0.0 mm open2300-1.11 W/m2
01:10 12.1 °C 5.7 °C 1015.8 hPa Calm     65 % 0.0 mm open2300-1.11 W/m2
02:10 11.6 °C 5.7 °C 1015.8 hPa Calm     67 % 0.0 mm open2300-1.11 W/m2
03:10 11.6 °C 6.3 °C 1015.5 hPa Calm     70 % 0.0 mm open2300-1.11 W/m2
05:10 13.0 °C 8.7 °C 1014.8 hPa Calm     75 % 0.0 mm open2300-1.11 W/m2
06:10 13.1 °C 8.7 °C 1014.8 hPa Calm     75 % 0.0 mm open2300-1.11 W/m2
07:10 13.3 °C 9.3 °C 1014.8 hPa Calm     77 % 0.0 mm open2300-1.11 W/m2
08:10 13.4 °C 10.4 °C 1014.1 hPa Calm     82 % 0.0 mm open2300-1.11 W/m2
09:10 14.9 °C 11.7 °C 1013.8 hPa WNW 7.2 km/h 7.2 km/h 81 % 0.0 mm open2300-1.11 W/m2
11:10 17.9 °C 12.8 °C 1013.4 hPa Calm     72 % 0.0 mm open2300-1.11 W/m2
12:10 18.6 °C 12.3 °C 1013.1 hPa NW 6.1 km/h 7.2 km/h 67 % 0.0 mm open2300-1.11 W/m2
13:10 16.9 °C 11.2 °C 1012.4 hPa WNW 5.5 km/h 5.5 km/h 69 % 0.0 mm open2300-1.11 W/m2
14:10 17.6 °C 8.9 °C 1012.1 hPa NNW 6.1 km/h 17.7 km/h 57 % 0.0 mm open2300-1.11 W/m2
15:10 16.9 °C 8.8 °C 1012.1 hPa Calm     59 % 0.0 mm open2300-1.11 W/m2
16:10 16.7 °C 7.8 °C 1012.4 hPa Calm   8.2 km/h 56 % 0.0 mm open2300-1.11 W/m2
17:10 16.6 °C 6.7 °C 1012.4 hPa Calm     52 % 0.0 mm open2300-1.11 W/m2
18:10 16.1 °C 7.6 °C 1012.8 hPa Calm   12.2 km/h 57 % 0.0 mm open2300-1.11 W/m2
19:10 15.8 °C 7.0 °C 1013.4 hPa Calm     56 % 0.0 mm open2300-1.11 W/m2
20:10 15.6 °C 6.3 °C 1013.8 hPa Calm   2.9 km/h 54 % 0.0 mm open2300-1.11 W/m2
21:10 15.4 °C 6.1 °C 1014.4 hPa Calm     54 % 0.0 mm open2300-1.11 W/m2
22:10 15.2 °C 6.2 °C 1014.8 hPa Calm     55 % 0.0 mm open2300-1.11 W/m2
23:10 14.9 °C 5.9 °C 1014.4 hPa Calm   1.4 km/h 55 % 0.0 mm open2300-1.11 W/m2
Observations météo à CASSIS
WU-History script by Weather Underground - 1 mb